sensor_id;sensor_type;location;lat;lon;timestamp;temperature;humidity
19654;DHT22;9975;48.046;7.804;2023-07-13T01:56:32;19.50;99.90
19654;DHT22;9975;48.046;7.804;2023-07-13T01:58:57;19.50;99.90
19654;DHT22;9975;48.046;7.804;2023-07-13T02:01:23;19.40;99.90
19654;DHT22;9975;48.046;7.804;2023-07-13T02:03:48;19.40;99.90
19654;DHT22;9975;48.046;7.804;2023-07-13T02:06:14;19.40;99.90
19654;DHT22;9975;48.046;7.804;2023-07-13T02:08:41;19.30;99.90
19654;DHT22;9975;48.046;7.804;2023-07-13T02:11:08;19.40;99.90
19654;DHT22;9975;48.046;7.804;2023-07-13T02:13:34;19.40;99.90
19654;DHT22;9975;48.046;7.804;2023-07-13T02:16:00;19.40;99.90
19654;DHT22;9975;48.046;7.804;2023-07-13T02:18:26;19.40;99.90
19654;DHT22;9975;48.046;7.804;2023-07-13T02:20:51;19.40;99.90
19654;DHT22;9975;48.046;7.804;2023-07-13T02:23:17;19.30;99.90
19654;DHT22;9975;48.046;7.804;2023-07-13T02:25:43;19.30;99.90
19654;DHT22;9975;48.046;7.804;2023-07-13T02:28:08;19.30;99.90
19654;DHT22;9975;48.046;7.804;2023-07-13T02:30:35;19.30;99.90
19654;DHT22;9975;48.046;7.804;2023-07-13T02:33:01;19.30;99.90
19654;DHT22;9975;48.046;7.804;2023-07-13T02:35:26;19.20;99.90
19654;DHT22;9975;48.046;7.804;2023-07-13T02:37:52;19.10;99.90
19654;DHT22;9975;48.046;7.804;2023-07-13T02:40:17;19.10;99.90
19654;DHT22;9975;48.046;7.804;2023-07-13T02:42:43;19.10;99.90
19654;DHT22;9975;48.046;7.804;2023-07-13T02:45:09;19.10;99.90
19654;DHT22;9975;48.046;7.804;2023-07-13T02:47:35;19.00;99.90
19654;DHT22;9975;48.046;7.804;2023-07-13T02:50:01;18.90;99.90
19654;DHT22;9975;48.046;7.804;2023-07-13T02:52:27;19.00;99.90
19654;DHT22;9975;48.046;7.804;2023-07-13T02:54:53;19.00;99.90
19654;DHT22;9975;48.046;7.804;2023-07-13T02:57:18;19.00;99.90
19654;DHT22;9975;48.046;7.804;2023-07-13T02:59:44;18.90;99.90
19654;DHT22;9975;48.046;7.804;2023-07-13T03:02:10;19.00;99.90
19654;DHT22;9975;48.046;7.804;2023-07-13T03:04:36;18.90;99.90
19654;DHT22;9975;48.046;7.804;2023-07-13T03:07:03;18.90;99.90
19654;DHT22;9975;48.046;7.804;2023-07-13T03:09:30;19.00;99.90
19654;DHT22;9975;48.046;7.804;2023-07-13T03:11:55;19.00;99.90
19654;DHT22;9975;48.046;7.804;2023-07-13T03:14:24;19.00;99.90
19654;DHT22;9975;48.046;7.804;2023-07-13T03:16:50;19.10;99.90
19654;DHT22;9975;48.046;7.804;2023-07-13T03:19:16;19.00;99.90
19654;DHT22;9975;48.046;7.804;2023-07-13T03:21:42;19.00;99.90
19654;DHT22;9975;48.046;7.804;2023-07-13T03:24:07;18.90;99.90
19654;DHT22;9975;48.046;7.804;2023-07-13T03:26:33;18.70;99.90
19654;DHT22;9975;48.046;7.804;2023-07-13T03:28:58;18.80;99.90
19654;DHT22;9975;48.046;7.804;2023-07-13T03:31:32;18.70;99.90
19654;DHT22;9975;48.046;7.804;2023-07-13T03:33:58;18.70;99.90
19654;DHT22;9975;48.046;7.804;2023-07-13T03:36:26;18.60;99.90
19654;DHT22;9975;48.046;7.804;2023-07-13T03:38:58;18.60;99.90
19654;DHT22;9975;48.046;7.804;2023-07-13T03:41:24;18.50;99.90
19654;DHT22;9975;48.046;7.804;2023-07-13T03:43:51;18.60;99.90
19654;DHT22;9975;48.046;7.804;2023-07-13T03:46:17;18.50;99.90
19654;DHT22;9975;48.046;7.804;2023-07-13T03:48:45;18.60;99.90
19654;DHT22;9975;48.046;7.804;2023-07-13T03:51:12;18.60;99.90
19654;DHT22;9975;48.046;7.804;2023-07-13T03:53:41;18.60;99.90
19654;DHT22;9975;48.046;7.804;2023-07-13T03:56:08;18.60;99.90
19654;DHT22;9975;48.046;7.804;2023-07-13T03:58:39;18.60;99.90
19654;DHT22;9975;48.046;7.804;2023-07-13T04:01:07;18.50;99.90
19654;DHT22;9975;48.046;7.804;2023-07-13T04:03:33;18.40;99.90
19654;DHT22;9975;48.046;7.804;2023-07-13T04:06:00;18.40;99.90
19654;DHT22;9975;48.046;7.804;2023-07-13T04:08:30;18.30;99.90
19654;DHT22;9975;48.046;7.804;2023-07-13T04:10:57;18.30;99.90
19654;DHT22;9975;48.046;7.804;2023-07-13T04:13:23;18.30;99.90
19654;DHT22;9975;48.046;7.804;2023-07-13T04:15:49;18.30;99.90
19654;DHT22;9975;48.046;7.804;2023-07-13T04:18:15;18.30;99.90
19654;DHT22;9975;48.046;7.804;2023-07-13T04:20:40;18.30;99.90
19654;DHT22;9975;48.046;7.804;2023-07-13T04:23:06;18.20;99.90
19654;DHT22;9975;48.046;7.804;2023-07-13T04:25:31;18.10;99.90
19654;DHT22;9975;48.046;7.804;2023-07-13T04:27:57;18.60;99.90
19654;DHT22;9975;48.046;7.804;2023-07-13T04:30:23;18.10;99.90
19654;DHT22;9975;48.046;7.804;2023-07-13T04:32:51;18.10;99.90
19654;DHT22;9975;48.046;7.804;2023-07-13T04:35:18;18.10;99.90
19654;DHT22;9975;48.046;7.804;2023-07-13T04:37:46;18.10;99.90
19654;DHT22;9975;48.046;7.804;2023-07-13T04:40:12;18.10;99.90
19654;DHT22;9975;48.046;7.804;2023-07-13T04:42:38;18.20;99.90
19654;DHT22;9975;48.046;7.804;2023-07-13T04:45:06;18.20;99.90
19654;DHT22;9975;48.046;7.804;2023-07-13T04:47:32;18.30;99.90
19654;DHT22;9975;48.046;7.804;2023-07-13T04:49:58;18.40;99.90
19654;DHT22;9975;48.046;7.804;2023-07-13T04:52:24;18.30;99.90
19654;DHT22;9975;48.046;7.804;2023-07-13T04:54:50;18.30;99.90
19654;DHT22;9975;48.046;7.804;2023-07-13T04:57:16;18.40;99.90
19654;DHT22;9975;48.046;7.804;2023-07-13T04:59:41;18.50;99.90
19654;DHT22;9975;48.046;7.804;2023-07-13T05:02:07;18.50;99.90
19654;DHT22;9975;48.046;7.804;2023-07-13T05:04:32;18.50;99.90
19654;DHT22;9975;48.046;7.804;2023-07-13T05:06:59;18.50;99.90
19654;DHT22;9975;48.046;7.804;2023-07-13T05:09:25;18.50;99.90
19654;DHT22;9975;48.046;7.804;2023-07-13T05:11:50;18.50;99.90
19654;DHT22;9975;48.046;7.804;2023-07-13T05:14:16;18.50;99.90
19654;DHT22;9975;48.046;7.804;2023-07-13T05:16:42;18.60;99.90
19654;DHT22;9975;48.046;7.804;2023-07-13T05:19:08;18.60;99.90
19654;DHT22;9975;48.046;7.804;2023-07-13T05:21:34;18.80;99.90
19654;DHT22;9975;48.046;7.804;2023-07-13T05:23:59;18.90;99.90
19654;DHT22;9975;48.046;7.804;2023-07-13T05:26:25;19.00;99.90
19654;DHT22;9975;48.046;7.804;2023-07-13T05:28:50;19.00;99.90
19654;DHT22;9975;48.046;7.804;2023-07-13T05:31:16;19.00;99.90
19654;DHT22;9975;48.046;7.804;2023-07-13T05:33:42;19.00;99.90
19654;DHT22;9975;48.046;7.804;2023-07-13T05:36:08;19.10;99.90
19654;DHT22;9975;48.046;7.804;2023-07-13T05:38:34;19.20;99.90
19654;DHT22;9975;48.046;7.804;2023-07-13T05:41:00;19.30;99.90
19654;DHT22;9975;48.046;7.804;2023-07-13T05:43:26;19.30;99.90
19654;DHT22;9975;48.046;7.804;2023-07-13T05:45:56;19.30;99.90
19654;DHT22;9975;48.046;7.804;2023-07-13T05:48:22;19.40;99.90
19654;DHT22;9975;48.046;7.804;2023-07-13T05:51:23;19.30;99.90
19654;DHT22;9975;48.046;7.804;2023-07-13T05:53:49;19.40;99.90
19654;DHT22;9975;48.046;7.804;2023-07-13T05:56:15;19.40;99.90
19654;DHT22;9975;48.046;7.804;2023-07-13T05:58:40;19.40;99.90
19654;DHT22;9975;48.046;7.804;2023-07-13T06:01:10;19.50;99.90
19654;DHT22;9975;48.046;7.804;2023-07-13T06:03:36;19.60;99.90
19654;DHT22;9975;48.046;7.804;2023-07-13T06:06:04;19.70;99.90
19654;DHT22;9975;48.046;7.804;2023-07-13T06:08:30;19.80;99.90
19654;DHT22;9975;48.046;7.804;2023-07-13T06:11:06;19.90;99.90
19654;DHT22;9975;48.046;7.804;2023-07-13T06:13:31;20.00;99.90
19654;DHT22;9975;48.046;7.804;2023-07-13T06:15:58;20.00;99.90
19654;DHT22;9975;48.046;7.804;2023-07-13T06:18:23;20.10;99.90
19654;DHT22;9975;48.046;7.804;2023-07-13T06:20:49;20.20;99.90
19654;DHT22;9975;48.046;7.804;2023-07-13T06:23:14;20.30;99.90
19654;DHT22;9975;48.046;7.804;2023-07-13T06:25:40;20.30;99.90
19654;DHT22;9975;48.046;7.804;2023-07-13T06:28:06;20.40;99.90
19654;DHT22;9975;48.046;7.804;2023-07-13T06:30:31;20.50;99.90
19654;DHT22;9975;48.046;7.804;2023-07-13T06:32:57;20.50;97.60
19654;DHT22;9975;48.046;7.804;2023-07-13T06:35:23;20.40;97.60
19654;DHT22;9975;48.046;7.804;2023-07-13T06:40:53;20.60;97.30
19654;DHT22;9975;48.046;7.804;2023-07-13T06:43:19;20.70;96.60
19654;DHT22;9975;48.046;7.804;2023-07-13T06:45:46;20.80;96.20
19654;DHT22;9975;48.046;7.804;2023-07-13T06:48:14;20.80;94.00
19654;DHT22;9975;48.046;7.804;2023-07-13T06:50:41;20.80;94.40
19654;DHT22;9975;48.046;7.804;2023-07-13T06:53:08;20.90;94.20
19654;DHT22;9975;48.046;7.804;2023-07-13T06:55:34;20.80;94.70
19654;DHT22;9975;48.046;7.804;2023-07-13T06:57:59;21.00;93.50
19654;DHT22;9975;48.046;7.804;2023-07-13T07:00:25;21.10;91.80
19654;DHT22;9975;48.046;7.804;2023-07-13T07:02:51;21.20;90.20
19654;DHT22;9975;48.046;7.804;2023-07-13T07:05:16;21.40;86.30
19654;DHT22;9975;48.046;7.804;2023-07-13T07:07:42;21.40;84.00
19654;DHT22;9975;48.046;7.804;2023-07-13T07:10:08;21.50;84.30
19654;DHT22;9975;48.046;7.804;2023-07-13T07:12:34;21.50;85.20
19654;DHT22;9975;48.046;7.804;2023-07-13T07:14:59;21.50;81.10
19654;DHT22;9975;48.046;7.804;2023-07-13T07:17:25;21.60;79.80
19654;DHT22;9975;48.046;7.804;2023-07-13T07:19:52;21.60;72.50
19654;DHT22;9975;48.046;7.804;2023-07-13T07:22:20;21.60;73.20
19654;DHT22;9975;48.046;7.804;2023-07-13T07:24:45;21.80;74.70
19654;DHT22;9975;48.046;7.804;2023-07-13T07:27:11;21.90;76.10
19654;DHT22;9975;48.046;7.804;2023-07-13T07:29:37;22.00;76.00
19654;DHT22;9975;48.046;7.804;2023-07-13T07:32:02;22.10;73.60
19654;DHT22;9975;48.046;7.804;2023-07-13T07:34:28;22.30;74.50
19654;DHT22;9975;48.046;7.804;2023-07-13T07:36:54;22.60;72.10
19654;DHT22;9975;48.046;7.804;2023-07-13T07:39:20;22.60;72.80
19654;DHT22;9975;48.046;7.804;2023-07-13T07:41:45;22.90;72.90
19654;DHT22;9975;48.046;7.804;2023-07-13T07:44:11;22.80;70.50
19654;DHT22;9975;48.046;7.804;2023-07-13T07:46:39;22.90;69.90
19654;DHT22;9975;48.046;7.804;2023-07-13T07:49:05;22.90;69.20
19654;DHT22;9975;48.046;7.804;2023-07-13T07:51:31;23.10;69.30
19654;DHT22;9975;48.046;7.804;2023-07-13T07:53:57;23.30;66.40
19654;DHT22;9975;48.046;7.804;2023-07-13T07:56:22;23.30;64.30
19654;DHT22;9975;48.046;7.804;2023-07-13T07:58:48;23.40;64.10
19654;DHT22;9975;48.046;7.804;2023-07-13T08:01:14;23.50;63.50
19654;DHT22;9975;48.046;7.804;2023-07-13T08:03:39;23.50;61.50
19654;DHT22;9975;48.046;7.804;2023-07-13T08:06:05;23.50;61.30
19654;DHT22;9975;48.046;7.804;2023-07-13T08:08:30;23.40;61.60
19654;DHT22;9975;48.046;7.804;2023-07-13T08:10:56;23.60;61.20
19654;DHT22;9975;48.046;7.804;2023-07-13T08:13:22;23.90;60.50
19654;DHT22;9975;48.046;7.804;2023-07-13T08:15:47;24.10;61.20
19654;DHT22;9975;48.046;7.804;2023-07-13T08:18:14;24.30;55.60
19654;DHT22;9975;48.046;7.804;2023-07-13T08:20:40;24.20;55.90
19654;DHT22;9975;48.046;7.804;2023-07-13T08:23:10;24.30;52.70
19654;DHT22;9975;48.046;7.804;2023-07-13T08:25:35;24.30;53.50
19654;DHT22;9975;48.046;7.804;2023-07-13T08:28:03;24.40;53.80
19654;DHT22;9975;48.046;7.804;2023-07-13T08:30:29;23.20;51.70
19654;DHT22;9975;48.046;7.804;2023-07-13T08:32:54;24.90;54.50
19654;DHT22;9975;48.046;7.804;2023-07-13T08:35:20;25.00;52.80
19654;DHT22;9975;48.046;7.804;2023-07-13T08:37:46;24.90;51.30
19654;DHT22;9975;48.046;7.804;2023-07-13T08:40:12;25.00;51.00
19654;DHT22;9975;48.046;7.804;2023-07-13T08:42:54;25.00;49.80
19654;DHT22;9975;48.046;7.804;2023-07-13T08:45:25;25.10;49.70
19654;DHT22;9975;48.046;7.804;2023-07-13T08:48:01;25.40;50.40
19654;DHT22;9975;48.046;7.804;2023-07-13T08:50:32;25.60;49.80
19654;DHT22;9975;48.046;7.804;2023-07-13T08:53:00;25.50;50.50
19654;DHT22;9975;48.046;7.804;2023-07-13T08:55:32;25.60;52.10
19654;DHT22;9975;48.046;7.804;2023-07-13T08:58:11;25.60;52.20
19654;DHT22;9975;48.046;7.804;2023-07-13T09:00:49;25.80;50.50
19654;DHT22;9975;48.046;7.804;2023-07-13T09:03:23;26.10;49.20
19654;DHT22;9975;48.046;7.804;2023-07-13T09:05:54;26.10;49.50
19654;DHT22;9975;48.046;7.804;2023-07-13T09:14:42;25.70;46.20
19654;DHT22;9975;48.046;7.804;2023-07-13T09:17:24;25.60;47.20
19654;DHT22;9975;48.046;7.804;2023-07-13T09:19:58;25.60;45.10
19654;DHT22;9975;48.046;7.804;2023-07-13T09:22:26;26.00;47.40
19654;DHT22;9975;48.046;7.804;2023-07-13T09:27:29;26.60;41.90
19654;DHT22;9975;48.046;7.804;2023-07-13T09:32:41;26.40;42.40
19654;DHT22;9975;48.046;7.804;2023-07-13T09:35:18;26.10;43.20
19654;DHT22;9975;48.046;7.804;2023-07-13T09:37:45;26.10;42.60
19654;DHT22;9975;48.046;7.804;2023-07-13T09:40:25;26.10;41.90
19654;DHT22;9975;48.046;7.804;2023-07-13T09:42:54;26.40;40.40
19654;DHT22;9975;48.046;7.804;2023-07-13T09:45:30;26.80;38.80
19654;DHT22;9975;48.046;7.804;2023-07-13T09:48:13;27.10;37.70
19654;DHT22;9975;48.046;7.804;2023-07-13T09:50:39;27.50;36.50
19654;DHT22;9975;48.046;7.804;2023-07-13T09:53:12;27.80;36.80
19654;DHT22;9975;48.046;7.804;2023-07-13T09:55:39;27.90;35.00
19654;DHT22;9975;48.046;7.804;2023-07-13T09:58:24;28.00;34.60
19654;DHT22;9975;48.046;7.804;2023-07-13T10:00:57;28.10;33.70
19654;DHT22;9975;48.046;7.804;2023-07-13T10:03:27;28.00;32.60
19654;DHT22;9975;48.046;7.804;2023-07-13T10:05:53;27.70;31.70
19654;DHT22;9975;48.046;7.804;2023-07-13T10:10:58;28.10;29.60
19654;DHT22;9975;48.046;7.804;2023-07-13T10:16:15;28.50;28.50
19654;DHT22;9975;48.046;7.804;2023-07-13T10:19:29;29.00;28.60
19654;DHT22;9975;48.046;7.804;2023-07-13T10:21:35;28.60;27.10
19654;DHT22;9975;48.046;7.804;2023-07-13T10:24:25;27.70;28.80
19654;DHT22;9975;48.046;7.804;2023-07-13T10:29:59;28.10;28.00
19654;DHT22;9975;48.046;7.804;2023-07-13T10:32:26;28.20;27.40
19654;DHT22;9975;48.046;7.804;2023-07-13T10:34:51;28.00;27.50
19654;DHT22;9975;48.046;7.804;2023-07-13T10:37:27;28.10;27.80
19654;DHT22;9975;48.046;7.804;2023-07-13T10:39:56;28.40;25.80
19654;DHT22;9975;48.046;7.804;2023-07-13T10:42:35;28.20;24.50
19654;DHT22;9975;48.046;7.804;2023-07-13T10:45:15;28.30;25.10
19654;DHT22;9975;48.046;7.804;2023-07-13T10:47:41;28.40;26.30
19654;DHT22;9975;48.046;7.804;2023-07-13T10:50:20;28.30;24.90
19654;DHT22;9975;48.046;7.804;2023-07-13T10:52:48;28.50;25.70
19654;DHT22;9975;48.046;7.804;2023-07-13T10:55:37;28.60;24.50
19654;DHT22;9975;48.046;7.804;2023-07-13T11:03:22;28.80;26.60
19654;DHT22;9975;48.046;7.804;2023-07-13T11:05:50;28.90;26.30
19654;DHT22;9975;48.046;7.804;2023-07-13T11:08:19;29.20;26.20
19654;DHT22;9975;48.046;7.804;2023-07-13T11:10:50;29.60;25.10
19654;DHT22;9975;48.046;7.804;2023-07-13T11:16:36;29.60;24.40
19654;DHT22;9975;48.046;7.804;2023-07-13T11:21:31;29.70;22.80
19654;DHT22;9975;48.046;7.804;2023-07-13T11:26:51;29.10;22.80
19654;DHT22;9975;48.046;7.804;2023-07-13T11:31:53;29.20;24.30
19654;DHT22;9975;48.046;7.804;2023-07-13T11:34:30;29.20;24.80
19654;DHT22;9975;48.046;7.804;2023-07-13T11:36:58;29.80;23.20
19654;DHT22;9975;48.046;7.804;2023-07-13T11:39:40;29.80;21.90
19654;DHT22;9975;48.046;7.804;2023-07-13T11:42:12;29.10;22.70
19654;DHT22;9975;48.046;7.804;2023-07-13T11:44:42;28.90;23.00
19654;DHT22;9975;48.046;7.804;2023-07-13T11:47:18;29.00;22.70
19654;DHT22;9975;48.046;7.804;2023-07-13T11:49:51;29.10;23.20
19654;DHT22;9975;48.046;7.804;2023-07-13T11:52:26;29.10;22.80
19654;DHT22;9975;48.046;7.804;2023-07-13T11:54:55;29.80;22.90
19654;DHT22;9975;48.046;7.804;2023-07-13T11:57:28;30.10;22.10
19654;DHT22;9975;48.046;7.804;2023-07-13T11:59:56;29.90;21.60
19654;DHT22;9975;48.046;7.804;2023-07-13T12:02:36;29.40;22.50
19654;DHT22;9975;48.046;7.804;2023-07-13T12:05:04;29.90;22.10
19654;DHT22;9975;48.046;7.804;2023-07-13T12:07:32;29.90;22.20
19654;DHT22;9975;48.046;7.804;2023-07-13T12:12:56;30.10;23.40
19654;DHT22;9975;48.046;7.804;2023-07-13T12:15:28;30.30;22.50
19654;DHT22;9975;48.046;7.804;2023-07-13T12:17:56;30.00;21.80
19654;DHT22;9975;48.046;7.804;2023-07-13T12:20:35;30.10;22.10
19654;DHT22;9975;48.046;7.804;2023-07-13T12:23:05;30.20;21.90
19654;DHT22;9975;48.046;7.804;2023-07-13T12:25:31;30.30;21.80
19654;DHT22;9975;48.046;7.804;2023-07-13T12:27:57;30.40;22.60
19654;DHT22;9975;48.046;7.804;2023-07-13T12:30:29;30.20;22.50
19654;DHT22;9975;48.046;7.804;2023-07-13T12:33:07;30.50;21.90
19654;DHT22;9975;48.046;7.804;2023-07-13T12:35:40;30.60;20.70
19654;DHT22;9975;48.046;7.804;2023-07-13T12:38:10;30.50;20.40
19654;DHT22;9975;48.046;7.804;2023-07-13T12:40:36;31.00;20.00
19654;DHT22;9975;48.046;7.804;2023-07-13T12:43:03;30.70;20.70
19654;DHT22;9975;48.046;7.804;2023-07-13T12:45:32;30.60;20.70
19654;DHT22;9975;48.046;7.804;2023-07-13T12:48:10;30.50;20.50
19654;DHT22;9975;48.046;7.804;2023-07-13T12:50:41;30.40;21.10
19654;DHT22;9975;48.046;7.804;2023-07-13T12:53:13;29.70;21.50
19654;DHT22;9975;48.046;7.804;2023-07-13T12:56:01;29.30;22.60
19654;DHT22;9975;48.046;7.804;2023-07-13T12:58:36;29.60;22.90
19654;DHT22;9975;48.046;7.804;2023-07-13T13:01:03;29.50;21.80
19654;DHT22;9975;48.046;7.804;2023-07-13T13:03:45;29.80;22.30
19654;DHT22;9975;48.046;7.804;2023-07-13T13:06:20;30.50;22.50
19654;DHT22;9975;48.046;7.804;2023-07-13T13:08:49;31.00;22.40
19654;DHT22;9975;48.046;7.804;2023-07-13T13:11:15;30.60;21.90
19654;DHT22;9975;48.046;7.804;2023-07-13T13:13:45;30.60;20.90
19654;DHT22;9975;48.046;7.804;2023-07-13T13:16:31;30.80;20.80
19654;DHT22;9975;48.046;7.804;2023-07-13T13:19:21;30.80;20.00
19654;DHT22;9975;48.046;7.804;2023-07-13T13:21:47;30.00;20.90
19654;DHT22;9975;48.046;7.804;2023-07-13T13:24:17;30.10;20.40
19654;DHT22;9975;48.046;7.804;2023-07-13T13:26:45;30.10;20.60
19654;DHT22;9975;48.046;7.804;2023-07-13T13:29:20;30.60;20.10
19654;DHT22;9975;48.046;7.804;2023-07-13T13:31:47;30.90;20.00
19654;DHT22;9975;48.046;7.804;2023-07-13T13:34:15;31.30;19.60
19654;DHT22;9975;48.046;7.804;2023-07-13T13:36:41;31.30;19.30
19654;DHT22;9975;48.046;7.804;2023-07-13T13:39:32;31.00;19.60
19654;DHT22;9975;48.046;7.804;2023-07-13T13:41:59;31.00;18.80
19654;DHT22;9975;48.046;7.804;2023-07-13T13:44:24;30.70;19.30
19654;DHT22;9975;48.046;7.804;2023-07-13T13:46:55;30.20;20.00
19654;DHT22;9975;48.046;7.804;2023-07-13T13:49:25;30.20;20.50
19654;DHT22;9975;48.046;7.804;2023-07-13T13:51:52;29.40;21.00
19654;DHT22;9975;48.046;7.804;2023-07-13T13:54:19;28.70;21.30
19654;DHT22;9975;48.046;7.804;2023-07-13T13:56:48;29.00;22.30
19654;DHT22;9975;48.046;7.804;2023-07-13T13:59:14;28.60;23.20
19654;DHT22;9975;48.046;7.804;2023-07-13T14:01:41;28.60;23.50
19654;DHT22;9975;48.046;7.804;2023-07-13T14:04:18;28.50;23.80
19654;DHT22;9975;48.046;7.804;2023-07-13T14:06:45;28.20;23.30
19654;DHT22;9975;48.046;7.804;2023-07-13T14:09:14;28.30;24.10
19654;DHT22;9975;48.046;7.804;2023-07-13T14:11:41;28.40;23.30
19654;DHT22;9975;48.046;7.804;2023-07-13T14:14:17;28.80;23.20
19654;DHT22;9975;48.046;7.804;2023-07-13T14:16:44;28.80;23.70
19654;DHT22;9975;48.046;7.804;2023-07-13T14:19:12;28.90;22.50
19654;DHT22;9975;48.046;7.804;2023-07-13T14:21:40;28.80;22.30
19654;DHT22;9975;48.046;7.804;2023-07-13T14:24:05;28.90;23.40
19654;DHT22;9975;48.046;7.804;2023-07-13T14:26:39;28.30;22.20
19654;DHT22;9975;48.046;7.804;2023-07-13T14:29:13;28.30;23.40
19654;DHT22;9975;48.046;7.804;2023-07-13T14:31:40;28.40;24.00
19654;DHT22;9975;48.046;7.804;2023-07-13T14:34:05;28.70;24.10
19654;DHT22;9975;48.046;7.804;2023-07-13T14:36:34;28.60;23.80
19654;DHT22;9975;48.046;7.804;2023-07-13T14:39:05;28.60;24.10
19654;DHT22;9975;48.046;7.804;2023-07-13T14:41:35;28.50;23.10
19654;DHT22;9975;48.046;7.804;2023-07-13T14:44:00;28.60;23.70
19654;DHT22;9975;48.046;7.804;2023-07-13T14:46:34;28.90;24.20
19654;DHT22;9975;48.046;7.804;2023-07-13T14:51:29;29.40;23.50
19654;DHT22;9975;48.046;7.804;2023-07-13T14:53:55;29.50;23.60
19654;DHT22;9975;48.046;7.804;2023-07-13T14:56:21;29.60;23.80
19654;DHT22;9975;48.046;7.804;2023-07-13T14:58:47;29.80;22.60
19654;DHT22;9975;48.046;7.804;2023-07-13T15:01:14;29.50;21.60
19654;DHT22;9975;48.046;7.804;2023-07-13T15:03:46;29.40;22.50
19654;DHT22;9975;48.046;7.804;2023-07-13T15:06:13;29.60;22.20
19654;DHT22;9975;48.046;7.804;2023-07-13T15:08:39;29.60;21.20
19654;DHT22;9975;48.046;7.804;2023-07-13T15:11:09;29.70;21.30
19654;DHT22;9975;48.046;7.804;2023-07-13T15:13:39;29.90;21.60
19654;DHT22;9975;48.046;7.804;2023-07-13T15:16:16;30.10;21.70
19654;DHT22;9975;48.046;7.804;2023-07-13T15:18:43;30.50;20.60
19654;DHT22;9975;48.046;7.804;2023-07-13T15:21:17;30.60;19.60
19654;DHT22;9975;48.046;7.804;2023-07-13T15:23:44;30.60;19.90
19654;DHT22;9975;48.046;7.804;2023-07-13T15:26:15;30.60;19.80
19654;DHT22;9975;48.046;7.804;2023-07-13T15:28:42;30.40;20.00
19654;DHT22;9975;48.046;7.804;2023-07-13T15:31:27;30.20;20.80
19654;DHT22;9975;48.046;7.804;2023-07-13T15:33:55;29.90;21.20
19654;DHT22;9975;48.046;7.804;2023-07-13T15:36:23;29.80;20.50
19654;DHT22;9975;48.046;7.804;2023-07-13T15:38:52;29.70;21.00
19654;DHT22;9975;48.046;7.804;2023-07-13T15:41:23;29.40;20.70
19654;DHT22;9975;48.046;7.804;2023-07-13T15:43:52;29.40;20.80
19654;DHT22;9975;48.046;7.804;2023-07-13T15:46:21;29.40;21.00
19654;DHT22;9975;48.046;7.804;2023-07-13T15:48:48;29.40;21.30
19654;DHT22;9975;48.046;7.804;2023-07-13T15:51:24;29.30;21.30
19654;DHT22;9975;48.046;7.804;2023-07-13T15:53:53;29.20;21.00
19654;DHT22;9975;48.046;7.804;2023-07-13T15:56:24;29.10;20.70
19654;DHT22;9975;48.046;7.804;2023-07-13T15:58:51;29.00;20.80
19654;DHT22;9975;48.046;7.804;2023-07-13T16:01:17;29.00;20.30
19654;DHT22;9975;48.046;7.804;2023-07-13T16:03:47;28.60;19.30
19654;DHT22;9975;48.046;7.804;2023-07-13T16:08:41;28.60;20.10
19654;DHT22;9975;48.046;7.804;2023-07-13T16:11:24;28.50;20.20
19654;DHT22;9975;48.046;7.804;2023-07-13T16:13:51;28.30;20.40
19654;DHT22;9975;48.046;7.804;2023-07-13T16:16:26;28.30;20.20
19654;DHT22;9975;48.046;7.804;2023-07-13T16:18:54;28.30;20.50
19654;DHT22;9975;48.046;7.804;2023-07-13T16:21:29;28.10;20.40
19654;DHT22;9975;48.046;7.804;2023-07-13T16:23:55;27.90;21.00
19654;DHT22;9975;48.046;7.804;2023-07-13T16:26:34;27.70;20.00
19654;DHT22;9975;48.046;7.804;2023-07-13T16:31:57;27.80;21.60
19654;DHT22;9975;48.046;7.804;2023-07-13T16:34:24;27.70;21.50
19654;DHT22;9975;48.046;7.804;2023-07-13T16:36:53;27.80;22.10
19654;DHT22;9975;48.046;7.804;2023-07-13T16:39:19;27.90;21.70
19654;DHT22;9975;48.046;7.804;2023-07-13T16:41:49;28.00;22.40
19654;DHT22;9975;48.046;7.804;2023-07-13T16:44:17;28.20;21.70
19654;DHT22;9975;48.046;7.804;2023-07-13T16:46:50;28.50;21.20
19654;DHT22;9975;48.046;7.804;2023-07-13T16:49:27;28.50;21.80
19654;DHT22;9975;48.046;7.804;2023-07-13T16:51:57;28.70;21.70
19654;DHT22;9975;48.046;7.804;2023-07-13T16:54:37;28.70;22.10
19654;DHT22;9975;48.046;7.804;2023-07-13T16:57:12;28.50;21.20
19654;DHT22;9975;48.046;7.804;2023-07-13T16:59:40;28.50;21.10
19654;DHT22;9975;48.046;7.804;2023-07-13T17:02:30;28.40;21.60
19654;DHT22;9975;48.046;7.804;2023-07-13T17:04:56;28.20;21.10
19654;DHT22;9975;48.046;7.804;2023-07-13T17:07:21;28.40;20.50
19654;DHT22;9975;48.046;7.804;2023-07-13T17:09:49;28.50;20.60
19654;DHT22;9975;48.046;7.804;2023-07-13T17:12:15;28.50;20.90
19654;DHT22;9975;48.046;7.804;2023-07-13T17:14:41;28.30;20.60
19654;DHT22;9975;48.046;7.804;2023-07-13T17:17:33;28.20;21.00
19654;DHT22;9975;48.046;7.804;2023-07-13T17:20:02;28.20;20.70
19654;DHT22;9975;48.046;7.804;2023-07-13T17:22:28;28.10;20.10
19654;DHT22;9975;48.046;7.804;2023-07-13T17:24:54;28.20;20.30
19654;DHT22;9975;48.046;7.804;2023-07-13T17:27:20;28.20;20.10
19654;DHT22;9975;48.046;7.804;2023-07-13T17:29:46;28.00;20.80
19654;DHT22;9975;48.046;7.804;2023-07-13T17:32:19;28.00;20.60
19654;DHT22;9975;48.046;7.804;2023-07-13T17:34:45;27.90;20.30
19654;DHT22;9975;48.046;7.804;2023-07-13T17:37:13;27.80;19.70
19654;DHT22;9975;48.046;7.804;2023-07-13T17:39:41;27.90;20.60
19654;DHT22;9975;48.046;7.804;2023-07-13T17:42:07;28.00;20.90
19654;DHT22;9975;48.046;7.804;2023-07-13T17:44:34;28.00;20.20
19654;DHT22;9975;48.046;7.804;2023-07-13T17:47:00;28.00;20.30
19654;DHT22;9975;48.046;7.804;2023-07-13T17:49:31;27.70;20.20
19654;DHT22;9975;48.046;7.804;2023-07-13T17:51:58;27.80;20.20
19654;DHT22;9975;48.046;7.804;2023-07-13T17:54:25;27.70;20.10
19654;DHT22;9975;48.046;7.804;2023-07-13T17:56:52;27.70;20.40
19654;DHT22;9975;48.046;7.804;2023-07-13T17:59:17;27.60;20.30
19654;DHT22;9975;48.046;7.804;2023-07-13T18:01:44;27.60;20.30
19654;DHT22;9975;48.046;7.804;2023-07-13T18:04:13;27.40;20.10
19654;DHT22;9975;48.046;7.804;2023-07-13T18:06:41;27.20;20.90
19654;DHT22;9975;48.046;7.804;2023-07-13T18:09:15;26.80;21.30
19654;DHT22;9975;48.046;7.804;2023-07-13T18:11:41;26.80;21.90
19654;DHT22;9975;48.046;7.804;2023-07-13T18:14:08;26.80;22.40
19654;DHT22;9975;48.046;7.804;2023-07-13T18:16:35;26.80;22.50
19654;DHT22;9975;48.046;7.804;2023-07-13T18:19:02;26.50;22.30
19654;DHT22;9975;48.046;7.804;2023-07-13T18:21:30;26.50;23.00
19654;DHT22;9975;48.046;7.804;2023-07-13T18:23:56;26.50;23.10
19654;DHT22;9975;48.046;7.804;2023-07-13T18:26:24;26.50;22.90
19654;DHT22;9975;48.046;7.804;2023-07-13T18:28:50;26.50;22.70
19654;DHT22;9975;48.046;7.804;2023-07-13T18:31:18;26.50;23.40
19654;DHT22;9975;48.046;7.804;2023-07-13T18:33:45;26.40;23.40
19654;DHT22;9975;48.046;7.804;2023-07-13T18:36:15;26.40;23.50
19654;DHT22;9975;48.046;7.804;2023-07-13T18:38:42;26.20;23.50
19654;DHT22;9975;48.046;7.804;2023-07-13T18:41:14;26.20;24.00